Race Result

Valentine's 8K

1125 US Hwy 98, Destin, FL 32541
5.0 miles
Place Name Age Sex Age Group Event Time Pace
1 Jonathan Campbell 40 M Overall Male R 00:29:49 05:57:00
2 Matt and Katja Blunden 0 C 1st Couple R 00:31:24 06:16:00
3 Zak Bostum 27 M 1M25-29 R 00:31:54 06:22:00
4 Challen Hyman 23 M 1M20-24 R 00:31:56 06:23:00
5 Martin Novak 36 M 1M35-39 R 00:32:04 06:24:00
6 Sean Bell 40 M Male Masters R 00:32:47 06:33:00
7 Yancy Ream 46 M 1M45-49 R 00:33:26 06:41:00
8 Marc Stanley 45 M 2M45-49 R 00:33:56 06:47:00
9 Rafe Armstong 55 M Male G/M R 00:34:07 06:49:00
10 Scott McNey 55 M 1M55-59 R 00:35:07 07:01:00
11 Rick Leonardi 55 M 2M55-59 R 00:35:27 07:05:00
12 Len Hall 64 M Male G/G/M R 00:35:57 07:11:00
13 Donald DiDonato 60 M 1M60-64 R 00:36:12 07:14:00
14 Jeff Harris 54 M 1M50-54 R 00:36:15 07:15:00
15 Jay McKenzie 55 M 3M55-59 R 00:36:27 07:17:00
16 Yamil Del Valle 33 M 1M30-34 R 00:36:30 07:18:00
17 Dale Eiriksson 61 M 2M60-64 R 00:37:22 07:28:00
18 Karl Denninger 54 M 2M50-54 R 00:38:08 07:37:00
19 Mike Superman Million 62 M 3M60-64 R 00:38:47 07:45:00
20 Alejandro Magana 27 M 2M25-29 R 00:39:01 07:48:00
21 Eric Davis and Andrea Korenek 0 C 2nd Couple R 00:40:00 08:00:00
22 Brian Medlin 33 M 2M30-34 R 00:40:15 08:03:00
23 Mark Flynn 69 M 1M65-69 R 00:40:34 08:06:00
24 Brian McMahon 59 M R 00:41:00 08:12:00
25 Amy Wells 45 F Overall Female R 00:41:24 08:16:00
26 Nick Kern 69 M 2M65-69 R 00:41:48 08:21:00
27 Jim Cardow 64 M R 00:41:51 08:22:00
28 Joe Place 34 M 3M30-34 R 00:41:59 08:23:00
29 Bill Bently 65 M 3M65-69 R 00:42:21 08:28:00
30 Diana Cole 42 F Female Masters R 00:42:25 08:29:00
31 Ashley Marzka 32 F 1F30-34 R 00:42:28 08:29:00
32 Bryan Hendricks and Jennifer Fox 0 C 3rd Couple R 00:42:43 08:32:00
33 Sharon Pescetta 61 F Female G/M R 00:42:48 08:33:00
34 Kent Knudson and Reagin Boggs 0 C 4th Couple R 00:44:01 08:48:00
35 Gavin Morris and Kate Morris 0 C 5th Couple R 00:44:30 08:54:00
36 Joyce Luen 32 F 2F30-34 R 00:45:12 09:02:00
37 Michelle Boswell 47 F 1F45-49 R 00:45:23 09:04:00
38 Sylvia Smith 60 F Female G/G/M R 00:45:32 09:06:00
39 Sarah Denninger 21 F 1F20-24 R 00:45:40 09:08:00
40 Cary and Holly Black 0 C R 00:45:54 09:10:00
41 Toni and Robin Watters 0 C R 00:46:44 09:20:00
42 Bill Christie 70 M 1M70-74 R 00:47:02 09:24:00
43 Al Mast 62 M R 00:47:18 09:27:00
44 Velina Sweatt 55 F 1F55-59 R 00:48:04 09:36:00
45 Guiovanna Jacobs 34 F 3F30-34 R 00:48:19 09:39:00
46 Ken Smalewich 57 M Overall Male W 00:48:26 09:41:00
47 Debbie Mast 54 F 1F50-54 R 00:48:28 09:41:00
48 Michelle Smith 49 F 2F45-49 R 00:48:39 09:43:00
49 Bud Simmons 73 M 2M70-74 R 00:48:53 09:46:00
50 Anna Klepser 41 F 1F40-44 R 00:49:48 09:57:00
51 Jason Morway and Monica Ramon 0 C R 00:50:11 10:02:00
52 Laurie Hansen 57 F 2F55-59 R 00:50:15 10:03:00
53 James and Michelle Taylor 0 C R 00:50:22 10:04:00
54 Sharon Veach 49 F 3F45-49 R 00:50:40 10:08:00
55 Jackie Dujkovic 42 F 2F40-44 R 00:50:57 10:11:00
56 Robert and Brenda Leveille 0 C R 00:51:02 10:12:00
57 Peter Woffindin 71 M 3M70-74 R 00:51:51 10:22:00
58 Donna King 50 F 2F50-54 R 00:51:58 10:23:00
59 Karen Westbrook 47 F R 00:52:19 10:27:00
60 Michelle Williams 36 F 1F35-39 R 00:52:23 10:28:00
61 Ashley Wininger 35 F 2F35-39 R 00:52:42 10:32:00
62 Eunice Hemsley 64 F 1F60-64 R 00:52:43 10:32:00
63 Andrea Forehand 37 F 3F35-39 R 00:53:03 10:36:00
64 Brandon Gueberd 36 F R 00:53:38 10:43:00
65 Karen Forehand 43 F 3F40-44 R 00:54:15 10:51:00
66 BANDIT 0 R 00:54:34 10:54:00
67 Falcon Rivera and Diana Adames 0 C R 00:54:58 10:59:00
68 Bill Nation 56 M R 00:55:23 11:04:00
69 Nancy Mann 72 F 1F70-74 R 00:55:28 11:05:00
70 James Osborn 68 M R 00:55:50 11:10:00
71 Kalyn Fields 33 F R 00:56:13 11:14:00
72 Cadence Garza 7 F 1F0-9 R 00:56:54 11:22:00
73 Emilio Garza 46 M 3M45-49 R 00:56:55 11:23:00
74 Jonathan and Jessica Pio 0 C R 00:57:47 11:33:00
75 John January 61 M 1M60 W 00:58:09 11:37:00
76 Joan Forman 76 F 1F75 R 00:58:12 11:38:00
77 Cathy Alley 61 F Overall Female W 00:58:36 11:43:00
78 Kathy Duke 59 F 3F55-59 R 00:59:11 11:50:00
79 Bob Collins 66 M 2M60 W 00:59:20 11:52:00
80 Bob Matheson 69 M 3M60 W 01:00:07 12:01:00
81 Ivy VaTema 48 F R 01:00:18 12:03:00
82 Jay Christensen 65 M W 01:00:49 12:09:00
83 Jane Christensen 64 F 1F60 W 01:01:17 12:15:00
84 Chip Chamberlain 68 M W 01:01:50 12:22:00
85 Tina Eagle 46 F 1F40-59 W 01:01:53 12:22:00
86 Alyson Garza 39 F R 01:02:04 12:24:00
87 Brian Weightman and Jennifer Pho 0 C R 01:03:25 12:41:00
88 Inge Ackerman 71 F 2F70-74 R 01:03:43 12:44:00
89 Cindy Jannazo 60 F 2F60 W 01:03:56 12:47:00
90 Beth Carter 55 F R 01:04:52 12:58:00
91 Jamie Teabo 54 M 3M50-54 R 01:05:00 13:00:00
92 Ted Duzansky 57 M 1M40-59 W 01:05:42 13:08:00
93 Ana Leurinda 58 F R 01:07:04 13:24:00
94 Richard Duke 53 M 2M40-59 W 01:09:11 13:50:00
95 Ken Wolfe 60 M W 01:13:00 14:36:00
96 Darlene Brunson 59 F 2F40-59 W 01:14:31 14:54:00
97 Mary Dailey 57 F 3F40-59 W 01:16:12 15:14:00
98 Debra Gates 56 F R 01:18:01 15:36:00
99 Nicole Leurinda 19 F 1F15-19 R 01:24:23 16:52:00
100 Nancy Cummings 61 F 2F60-64 R 01:29:32 17:54:00
101 Charles Cummings 71 M R 01:39:29 19:53:00

Contact Information Steve Cookman scookman@cox.net 850-585-0980